Time;durP1;ratioP1;P1;durP2;ratioP2;P2;SDS_P1;SDS_P2;PMS_P1;PMS_P2;Temp;Humidity;BMP_temperature;BMP_pressure;BME280_temperature;BME280_humidity;BME280_pressure;Samples;Min_cycle;Max_cycle;Signal;HPM_P1;HPM_P2
2022/08/20 00:01:45;;;;;;;17.75;8.20;;;;;;;19.41;44.66;100511.78;5036084;28;20067;-50
2022/08/20 00:04:11;;;;;;;19.75;9.38;;;;;;;19.38;44.96;100511.06;5047309;28;20049;-51
2022/08/20 00:06:39;;;;;;;17.77;8.93;;;;;;;19.21;45.27;100487.50;5028581;28;20041;-49
2022/08/20 00:09:04;;;;;;;18.52;9.48;;;;;;;19.40;45.20;100514.50;5013992;28;20041;-48
2022/08/20 00:11:32;;;;;;;16.80;9.23;;;;;;;19.37;45.00;100523.41;5021392;28;20414;-48
2022/08/20 00:14:01;;;;;;;21.67;9.27;;;;;;;19.36;45.49;100518.25;5031766;28;20052;-51
2022/08/20 00:16:31;;;;;;;15.50;9.15;;;;;;;19.33;45.60;100518.41;5033400;28;20037;-50
2022/08/20 00:18:59;;;;;;;17.92;10.27;;;;;;;19.29;45.69;100520.38;5032420;28;20053;-48
2022/08/20 00:21:25;;;;;;;13.60;9.73;;;;;;;19.25;45.58;100529.41;5033225;28;20064;-53
2022/08/20 00:23:52;;;;;;;22.98;10.60;;;;;;;19.25;46.11;100532.03;5027447;28;20044;-54
2022/08/20 00:26:19;;;;;;;22.08;10.73;;;;;;;19.11;46.15;100516.13;5032563;28;20038;-50
2022/08/20 00:28:45;;;;;;;21.10;10.93;;;;;;;19.13;46.40;100530.09;5031402;28;20053;-48
2022/08/20 00:31:13;;;;;;;21.65;10.95;;;;;;;19.09;46.64;100518.03;5037033;28;20048;-52
2022/08/20 00:33:39;;;;;;;24.85;12.25;;;;;;;19.08;46.71;100523.38;5035827;28;20048;-49
2022/08/20 00:36:08;;;;;;;18.60;10.75;;;;;;;19.08;46.74;100523.38;5030012;28;20077;-48
2022/08/20 00:38:36;;;;;;;24.67;13.02;;;;;;;19.09;46.87;100520.66;5012290;28;20041;-48
2022/08/20 00:41:02;;;;;;;20.05;12.40;;;;;;;19.14;46.94;100526.53;5027773;28;20052;-51
2022/08/20 00:43:48;;;;;;;21.33;14.27;;;;;;;19.16;47.26;100526.41;5052950;28;20052;-49
2022/08/20 00:46:21;;;;;;;27.52;14.55;;;;;;;19.14;46.93;100520.41;5039711;28;20064;-49
2022/08/20 00:48:50;;;;;;;27.75;14.18;;;;;;;19.15;47.17;100519.47;5045116;28;20038;-50
2022/08/20 00:51:16;;;;;;;;;;;;;;;19.15;47.33;100516.81;5037327;28;20041;-49
2022/08/20 00:53:43;;;;;;;24.35;14.70;;;;;;;19.11;47.36;100521.41;5052877;28;19928;-48
2022/08/20 00:56:13;;;;;;;22.52;14.02;;;;;;;19.08;47.66;100531.28;5039103;28;20510;-47
2022/08/20 00:58:40;;;;;;;23.13;14.83;;;;;;;19.08;47.72;100529.50;5031668;28;20094;-48
2022/08/20 01:01:07;;;;;;;25.52;15.77;;;;;;;18.92;47.81;100516.31;5031146;28;20299;-51
2022/08/20 01:03:33;;;;;;;28.92;16.00;;;;;;;19.01;48.00;100528.97;5031143;28;20025;-51
2022/08/20 01:05:59;;;;;;;21.25;14.25;;;;;;;18.96;48.20;100528.38;5031606;28;20063;-49
2022/08/20 01:08:25;;;;;;;20.25;13.20;;;;;;;18.98;48.47;100534.44;5031491;28;20033;-47
2022/08/20 01:11:05;;;;;;;24.48;15.77;;;;;;;18.98;48.60;100528.31;5032717;28;20433;-51
2022/08/20 01:13:34;;;;;;;24.90;15.95;;;;;;;18.99;48.63;100530.88;5051075;28;20056;-48
2022/08/20 01:16:02;;;;;;;23.35;14.88;;;;;;;18.96;48.65;100527.53;5035124;28;20128;-50
2022/08/20 01:18:30;;;;;;;21.77;15.43;;;;;;;18.97;48.75;100534.50;5030174;28;20049;-47
2022/08/20 01:21:01;;;;;;;25.90;15.00;;;;;;;18.91;48.92;100525.16;5031671;28;20064;-51
2022/08/20 01:23:31;;;;;;;26.02;15.60;;;;;;;18.94;48.77;100532.06;5051117;28;20032;-47
2022/08/20 01:26:08;;;;;;;24.00;14.55;;;;;;;18.90;48.99;100533.13;5041661;28;20045;-51
2022/08/20 01:28:42;;;;;;;24.95;14.48;;;;;;;18.85;49.11;100533.41;5032253;28;20159;-49
2022/08/20 01:31:12;;;;;;;22.60;14.48;;;;;;;18.82;49.28;100532.72;5018636;28;20044;-48
2022/08/20 01:33:39;;;;;;;23.13;14.30;;;;;;;18.77;49.37;100535.59;5032250;28;20068;-48
2022/08/20 01:36:06;;;;;;;22.35;13.45;;;;;;;18.74;49.58;100533.13;5031564;28;20141;-51
2022/08/20 01:38:34;;;;;;;23.80;13.57;;;;;;;18.73;49.67;100539.34;5031793;28;20045;-53
2022/08/20 01:41:29;;;;;;;23.77;13.13;;;;;;;18.66;50.06;100540.59;5018442;28;20049;-47
2022/08/20 01:43:58;;;;;;;21.58;13.48;;;;;;;18.65;50.01;100541.53;5051107;28;20033;-50
2022/08/20 01:46:36;;;;;;;24.35;13.38;;;;;;;18.50;50.02;100524.75;5036788;28;20049;-52
2022/08/20 01:49:29;;;;;;;19.25;13.00;;;;;;;18.63;50.12;100548.69;5051770;28;20040;-50
2022/08/20 01:51:57;;;;;;;22.95;13.48;;;;;;;18.58;50.16;100548.91;5034905;28;20053;-50
2022/08/20 01:54:24;;;;;;;21.05;12.70;;;;;;;18.46;50.21;100519.72;5031848;28;20132;-50
2022/08/20 01:57:01;;;;;;;19.52;12.88;;;;;;;18.57;50.29;100539.31;5030687;28;20041;-52
2022/08/20 01:59:28;;;;;;;24.83;12.88;;;;;;;18.31;50.53;100504.75;5031572;28;20046;-48
2022/08/20 02:01:59;;;;;;;21.08;12.38;;;;;;;18.51;50.36;100544.88;5042728;28;20131;-53
2022/08/20 02:04:25;;;;;;;24.10;13.35;;;;;;;18.50;50.74;100547.59;5043533;28;20052;-50
2022/08/20 02:06:56;;;;;;;21.52;11.95;;;;;;;18.44;50.89;100551.41;5029915;28;20037;-49
2022/08/20 02:09:22;;;;;;;19.65;12.45;;;;;;;18.43;50.85;100540.94;5031441;28;20037;-51
2022/08/20 02:11:48;;;;;;;21.33;12.65;;;;;;;18.38;51.14;100545.59;5031077;28;20128;-48
2022/08/20 02:14:14;;;;;;;21.30;12.15;;;;;;;18.40;50.93;100546.38;5031437;28;20045;-50
2022/08/20 02:16:42;;;;;;;19.17;11.77;;;;;;;18.39;50.89;100545.53;5031175;28;20421;-53
2022/08/20 02:19:23;;;;;;;18.52;11.98;;;;;;;18.42;50.98;100552.44;5030730;28;20524;-48
2022/08/20 02:21:55;;;;;;;20.65;11.63;;;;;;;18.42;51.15;100552.44;5023568;28;20512;-47
2022/08/20 02:24:21;;;;;;;29.83;13.07;;;;;;;18.40;51.14;100557.78;5030701;28;20099;-47
2022/08/20 02:26:47;;;;;;;19.95;12.32;;;;;;;18.40;51.00;100551.66;5031006;28;20063;-50
2022/08/20 02:29:14;;;;;;;17.83;11.93;;;;;;;18.41;50.94;100559.47;5029264;28;20064;-47
2022/08/20 02:31:43;;;;;;;17.92;11.43;;;;;;;18.23;51.07;100526.19;5038363;28;20596;-48
2022/08/20 02:34:10;;;;;;;19.02;11.15;;;;;;;18.38;51.06;100553.50;5045485;28;20095;-47
2022/08/20 02:36:36;;;;;;;20.70;11.30;;;;;;;18.39;51.23;100557.84;5030835;28;20467;-48
2022/08/20 02:39:09;;;;;;;18.98;11.15;;;;;;;18.35;51.21;100556.31;5030507;28;20107;-49
2022/08/20 02:41:36;;;;;;;20.50;11.68;;;;;;;18.34;51.18;100551.97;5034328;28;20052;-48
2022/08/20 02:44:03;;;;;;;18.67;11.85;;;;;;;18.34;51.36;100560.72;5049640;28;20889;-47
2022/08/20 02:46:29;;;;;;;22.40;11.70;;;;;;;18.34;51.37;100563.34;5033258;28;20080;-48
2022/08/20 02:48:55;;;;;;;17.40;11.38;;;;;;;18.29;51.43;100560.09;5030883;28;20068;-48
2022/08/20 02:51:21;;;;;;;17.73;11.80;;;;;;;18.06;51.48;100536.75;4994425;28;20601;-49
2022/08/20 02:53:47;;;;;;;15.65;11.32;;;;;;;18.19;51.54;100570.25;5025551;28;20120;-51
2022/08/20 02:56:13;;;;;;;20.00;11.63;;;;;;;18.19;51.40;100574.69;5029447;28;20049;-50
2022/08/20 02:58:40;;;;;;;15.93;10.73;;;;;;;18.19;51.63;100565.00;5028676;28;20045;-49
2022/08/20 03:01:11;;;;;;;22.05;11.13;;;;;;;18.20;51.90;100579.00;5030143;28;20043;-49
2022/08/20 03:03:40;;;;;;;20.52;10.43;;;;;;;18.21;51.68;100586.00;5009473;28;20481;-50
2022/08/20 03:06:07;;;;;;;17.48;10.68;;;;;;;18.21;51.94;100581.56;5022901;28;20049;-53
2022/08/20 03:08:34;;;;;;;17.85;11.65;;;;;;;18.18;51.96;100581.72;5030061;28;20037;-53
2022/08/20 03:11:00;;;;;;;18.95;11.50;;;;;;;17.99;51.88;100553.78;5030170;28;20162;-51
2022/08/20 03:13:26;;;;;;;19.88;11.20;;;;;;;18.19;51.71;100588.69;5015172;28;20037;-47
2022/08/20 03:15:55;;;;;;;20.20;12.02;;;;;;;18.26;51.81;100591.00;5030273;28;20053;-51
2022/08/20 03:18:25;;;;;;;19.83;12.43;;;;;;;18.28;51.99;100587.34;5030574;28;20045;-50
2022/08/20 03:20:51;;;;;;;24.48;13.52;;;;;;;18.31;51.74;100586.38;5030469;28;20052;-49
2022/08/20 03:23:18;;;;;;;22.88;14.73;;;;;;;18.30;51.88;100576.75;5035834;28;20060;-48
2022/08/20 03:25:45;;;;;;;21.38;14.38;;;;;;;18.40;51.55;100581.47;5030300;28;20085;-47
2022/08/20 03:28:44;;;;;;;28.42;16.92;;;;;;;18.42;51.69;100584.03;5067156;28;20432;-42
2022/08/20 03:31:10;;;;;;;33.65;18.10;;;;;;;18.26;51.45;100559.44;5067424;28;20041;-41
2022/08/20 03:33:38;;;;;;;28.15;19.42;;;;;;;18.36;51.68;100585.19;5067508;28;20135;-42
2022/08/20 03:36:05;;;;;;;28.65;19.08;;;;;;;18.35;51.61;100577.38;5066184;28;20072;-41
2022/08/20 03:38:31;;;;;;;37.50;21.13;;;;;;;18.33;51.80;100580.06;5049736;28;20520;-42
2022/08/20 03:40:56;;;;;;;32.80;21.52;;;;;;;18.32;51.88;100578.38;5067601;28;20050;-43
2022/08/20 03:43:23;;;;;;;37.17;22.35;;;;;;;18.24;51.96;100567.38;5084541;28;20040;-42
2022/08/20 03:45:49;;;;;;;34.45;22.63;;;;;;;18.34;51.70;100581.78;5075291;28;20037;-42
2022/08/20 03:48:17;;;;;;;36.60;22.00;;;;;;;18.47;51.78;100582.84;5081566;28;20036;-42
2022/08/20 03:50:44;;;;;;;32.95;21.48;;;;;;;18.53;51.72;100587.78;5073277;28;20052;-42
2022/08/20 03:53:11;;;;;;;32.35;21.55;;;;;;;18.63;51.64;100589.03;5066007;28;20040;-43
2022/08/20 03:55:38;;;;;;;35.03;20.55;;;;;;;18.70;51.54;100589.56;5075114;28;20036;-43
2022/08/20 03:58:06;;;;;;;35.85;19.17;;;;;;;18.78;51.27;100590.00;5087164;28;20044;-43
2022/08/20 04:00:37;;;;;;;27.77;17.00;;;;;;;18.68;51.40;100559.81;5075063;28;20099;-43
2022/08/20 04:03:04;;;;;;;28.52;15.95;;;;;;;18.93;51.21;100597.09;5077948;28;20036;-42
2022/08/20 04:05:32;;;;;;;20.92;13.82;;;;;;;19.00;51.12;100593.16;5087275;28;20075;-43
2022/08/20 04:08:00;;;;;;;22.20;13.43;;;;;;;19.08;50.99;100598.03;5068279;28;20412;-44
2022/08/20 04:10:26;;;;;;;22.97;12.80;;;;;;;19.12;50.95;100596.06;5067020;28;20044;-46
2022/08/20 04:12:53;;;;;;;19.50;12.27;;;;;;;19.04;51.14;100570.16;5075924;28;20044;-42
2022/08/20 04:15:21;;;;;;;19.95;11.77;;;;;;;19.25;50.93;100597.09;5085811;28;20585;-44
2022/08/20 04:17:49;;;;;;;21.08;13.70;;;;;;;19.24;50.91;100596.25;5079631;28;20577;-41
2022/08/20 04:21:21;;;;;;;22.15;10.75;;;;;;;19.35;50.60;100599.16;5108306;27;20944;-42
2022/08/20 04:23:48;;;;;;;14.70;9.75;;;;;;;19.45;50.65;100592.44;5106526;28;20127;-41
2022/08/20 04:26:15;;;;;;;14.35;9.77;;;;;;;19.62;50.33;100591.50;5108289;28;20055;-41
2022/08/20 04:28:41;;;;;;;19.02;9.13;;;;;;;19.83;49.76;100585.00;5102685;28;20101;-41
2022/08/20 04:31:06;;;;;;;18.30;9.70;;;;;;;19.99;49.37;100584.94;5107651;28;20503;-41
2022/08/20 04:33:32;;;;;;;20.52;9.20;;;;;;;20.06;49.08;100564.28;5106128;28;20040;-41
2022/08/20 04:36:01;;;;;;;25.17;9.02;;;;;;;20.16;48.69;100557.50;5104330;28;20040;-41
2022/08/20 04:38:28;;;;;;;16.50;8.68;;;;;;;20.26;48.21;100550.72;5107973;28;20040;-40
2022/08/20 04:40:57;;;;;;;20.63;8.70;;;;;;;20.47;48.31;100575.03;5089683;28;20073;-41
2022/08/20 04:43:29;;;;;;;14.68;7.53;;;;;;;20.53;48.10;100572.88;5107880;28;20051;-41
2022/08/20 04:45:56;;;;;;;21.80;8.68;;;;;;;20.64;47.77;100580.13;5107664;28;20044;-41
2022/08/20 04:48:23;;;;;;;17.40;7.70;;;;;;;20.68;47.70;100574.56;5106083;28;20075;-42
2022/08/20 04:50:52;;;;;;;;;;;;;;;20.69;47.75;100578.06;5096992;28;20428;-41
2022/08/20 04:53:20;;;;;;;13.85;7.80;;;;;;;20.59;47.79;100569.00;5097603;28;19965;-41
2022/08/20 04:55:46;;;;;;;14.95;7.13;;;;;;;20.46;48.10;100563.63;5106286;28;20100;-40
2022/08/20 04:58:17;;;;;;;21.85;7.20;;;;;;;20.49;47.66;100578.44;5105791;28;20039;-41
2022/08/20 05:00:51;;;;;;;18.42;7.18;;;;;;;20.41;47.96;100560.41;5104306;28;20539;-40
2022/08/20 05:03:17;;;;;;;12.43;6.47;;;;;;;20.37;47.98;100574.75;5099701;28;20040;-40
2022/08/20 05:05:44;;;;;;;13.13;6.65;;;;;;;20.37;47.87;100568.59;5106882;28;20044;-41
2022/08/20 05:08:11;;;;;;;11.85;6.20;;;;;;;20.37;47.79;100572.09;5106518;28;20608;-41
2022/08/20 05:10:38;;;;;;;12.85;5.95;;;;;;;20.12;47.71;100535.72;5106544;28;20032;-41
2022/08/20 05:13:05;;;;;;;11.15;6.28;;;;;;;20.42;47.46;100574.47;5106026;28;20040;-41
2022/08/20 05:15:31;;;;;;;10.93;6.45;;;;;;;20.50;47.39;100572.22;5107476;28;20127;-41
2022/08/20 05:18:02;;;;;;;10.88;6.57;;;;;;;20.59;47.17;100580.44;5104254;28;20139;-41
2022/08/20 05:20:30;;;;;;;12.77;6.10;;;;;;;20.69;46.95;100576.28;5086701;28;20079;-41
2022/08/20 05:22:57;;;;;;;11.80;6.50;;;;;;;20.88;46.57;100581.28;5090834;28;20036;-42
2022/08/20 05:25:30;;;;;;;15.85;6.07;;;;;;;21.12;45.86;100571.78;5084865;28;20050;-41
2022/08/20 05:28:02;;;;;;;17.90;6.53;;;;;;;21.34;45.23;100586.31;5085438;28;20055;-41
2022/08/20 05:30:32;;;;;;;12.70;6.75;;;;;;;21.50;44.70;100572.00;5086210;28;20575;-41
2022/08/20 05:32:59;;;;;;;13.80;5.95;;;;;;;21.65;43.92;100548.97;5072652;28;20040;-41
2022/08/20 05:35:26;;;;;;;14.20;6.78;;;;;;;21.78;43.75;100536.59;5072922;28;20044;-41
2022/08/20 05:37:52;;;;;;;15.85;9.93;;;;;;;22.22;42.67;100580.44;5072855;28;20044;-41
2022/08/20 05:40:20;;;;;;;16.30;8.00;;;;;;;22.39;42.29;100586.28;5054754;28;20144;-41
2022/08/20 05:42:46;;;;;;;9.52;5.70;;;;;;;22.53;41.78;100579.19;5072220;28;20047;-42
2022/08/20 05:45:12;;;;;;;13.15;5.88;;;;;;;22.57;40.87;100576.19;5071672;28;20517;-40
2022/08/20 05:47:39;;;;;;;14.13;5.80;;;;;;;22.45;40.34;100577.06;5072522;28;20045;-41
2022/08/20 05:50:07;;;;;;;11.05;5.80;;;;;;;22.49;39.95;100586.50;5079234;28;20117;-41
2022/08/20 05:52:33;;;;;;;11.68;5.13;;;;;;;22.53;39.69;100579.19;5091668;28;20132;-41
2022/08/20 05:54:59;;;;;;;13.43;5.55;;;;;;;22.59;39.53;100592.00;5085859;28;20168;-41
2022/08/20 05:57:24;;;;;;;11.35;5.20;;;;;;;22.76;39.41;100595.22;5065684;28;20070;-51
2022/08/20 05:59:50;;;;;;;11.30;6.25;;;;;;;22.70;39.11;100581.50;5073127;28;20045;-49
2022/08/20 06:05:00;;;;;;;11.15;5.57;;;;;;;22.47;38.64;100599.00;5090069;28;20062;-51
2022/08/20 06:07:26;;;;;;;12.23;6.20;;;;;;;22.47;38.73;100598.16;5091598;28;20058;-52
2022/08/20 06:09:52;;;;;;;15.65;5.55;;;;;;;22.33;38.61;100588.50;5092137;28;20040;-52
2022/08/20 06:12:18;;;;;;;11.98;4.88;;;;;;;22.28;38.63;100595.94;5090071;28;20396;-49
2022/08/20 06:14:46;;;;;;;35.97;20.05;;;;;;;22.30;38.84;100592.19;5087724;28;20043;-48
2022/08/20 06:17:14;;;;;;;23.20;13.38;;;;;;;22.40;38.94;100592.41;5091415;28;20052;-50
2022/08/20 06:19:41;;;;;;;6.72;4.38;;;;;;;22.45;38.48;100600.94;5096511;28;20079;-50
2022/08/20 06:22:06;;;;;;;15.30;5.60;;;;;;;22.34;38.51;100588.41;5082516;28;20077;-50
2022/08/20 06:24:32;;;;;;;25.40;15.73;;;;;;;22.06;38.54;100551.50;5091774;28;20035;-52
2022/08/20 06:27:00;;;;;;;18.50;10.05;;;;;;;22.35;38.51;100578.63;5091731;28;20047;-52
2022/08/20 06:29:27;;;;;;;28.15;13.23;;;;;;;22.54;38.54;100592.31;5090088;28;20039;-49
2022/08/20 06:31:55;;;;;;;29.98;14.18;;;;;;;22.51;38.48;100599.63;5090441;28;20503;-50
2022/08/20 06:34:21;;;;;;;107.78;66.18;;;;;;;22.37;38.50;100567.00;5087457;28;20071;-49
2022/08/20 06:36:47;;;;;;;95.35;60.03;;;;;;;22.61;38.45;100593.56;5074599;28;20127;-49
2022/08/20 06:39:13;;;;;;;7.72;4.57;;;;;;;22.67;38.21;100598.47;5091264;28;20135;-50
2022/08/20 06:41:39;;;;;;;22.25;9.65;;;;;;;22.68;38.46;100596.66;5090296;28;20064;-51
2022/08/20 06:44:09;;;;;;;5.80;4.47;;;;;;;22.72;38.37;100601.66;5090421;28;20036;-50
2022/08/20 06:46:36;;;;;;;27.95;12.02;;;;;;;22.78;38.37;100589.78;5072038;28;20036;-52
2022/08/20 06:49:04;;;;;;;17.17;7.50;;;;;;;22.89;38.30;100592.53;5091338;28;20047;-51
2022/08/20 06:51:30;;;;;;;9.20;3.88;;;;;;;22.96;38.23;100591.16;5093760;28;20036;-50
2022/08/20 06:53:56;;;;;;;13.40;7.38;;;;;;;23.00;38.10;100600.56;5085653;28;20419;-49
2022/08/20 06:56:22;;;;;;;13.35;5.53;;;;;;;22.96;38.14;100590.28;5078612;28;20067;-52
2022/08/20 06:58:48;;;;;;;14.15;7.03;;;;;;;23.08;38.15;100582.28;5088301;28;20448;-51
2022/08/20 07:01:19;;;;;;;20.98;12.10;;;;;;;23.13;38.06;100589.94;5087525;28;20032;-52
2022/08/20 07:03:48;;;;;;;11.05;5.05;;;;;;;22.99;38.10;100567.03;5084657;28;20454;-52
2022/08/20 07:06:15;;;;;;;11.25;5.40;;;;;;;22.82;37.90;100551.47;5089654;28;20419;-50
2022/08/20 07:08:42;;;;;;;14.82;5.28;;;;;;;23.19;37.86;100594.78;5078784;28;20036;-55
2022/08/20 07:11:09;;;;;;;13.65;5.43;;;;;;;23.40;37.76;100593.22;5089422;28;20032;-51
2022/08/20 07:13:36;;;;;;;16.48;5.45;;;;;;;24.29;36.73;100583.00;5088593;28;20051;-52
2022/08/20 07:16:03;;;;;;;16.25;4.85;;;;;;;24.61;36.10;100572.53;5086328;28;20088;-55
2022/08/20 07:18:30;;;;;;;10.23;4.95;;;;;;;25.27;35.35;100574.34;5090013;28;20036;-54
2022/08/20 07:20:57;;;;;;;10.90;4.90;;;;;;;26.77;33.24;100571.38;5071781;28;20139;-51
2022/08/20 07:23:26;;;;;;;8.68;3.70;;;;;;;27.57;31.40;100575.84;5090758;28;20092;-48
2022/08/20 07:25:54;;;;;;;7.57;4.00;;;;;;;27.74;31.27;100567.94;5090513;28;20632;-53
2022/08/20 07:28:22;;;;;;;12.77;5.72;;;;;;;27.61;31.14;100574.56;5089405;28;20415;-53
2022/08/20 07:33:38;;;;;;;9.65;4.35;;;;;;;26.85;31.99;100581.38;5089853;28;20036;-52
2022/08/20 07:36:04;;;;;;;16.10;8.18;;;;;;;26.28;32.43;100553.44;5087760;28;20043;-52
2022/08/20 07:38:31;;;;;;;17.75;7.15;;;;;;;26.13;32.62;100558.22;5080006;28;20131;-53
2022/08/20 07:41:00;;;;;;;12.70;6.55;;;;;;;25.93;33.06;100564.41;5061122;28;20043;-52
2022/08/20 07:43:27;;;;;;;12.25;4.30;;;;;;;26.00;33.10;100562.09;5088197;28;20044;-51
2022/08/20 07:45:59;;;;;;;23.95;12.07;;;;;;;26.01;32.77;100575.25;5088260;28;20122;-53
2022/08/20 07:48:29;;;;;;;30.15;16.55;;;;;;;25.80;32.81;100566.44;5085838;28;20036;-49
2022/08/20 07:51:02;;;;;;;20.83;10.68;;;;;;;25.65;33.37;100565.88;5089622;28;20044;-53
2022/08/20 07:53:28;;;;;;;19.00;8.82;;;;;;;25.68;33.44;100562.13;5087245;28;20143;-50
2022/08/20 07:55:54;;;;;;;8.55;4.45;;;;;;;25.65;33.64;100565.88;5082360;28;20069;-53
2022/08/20 07:58:23;;;;;;;23.15;10.13;;;;;;;25.60;33.72;100560.06;5082570;28;20039;-54
2022/08/20 08:00:50;;;;;;;18.83;9.77;;;;;;;25.56;34.44;100555.97;5077246;28;20044;-55
2022/08/20 08:03:16;;;;;;;12.40;4.95;;;;;;;25.59;33.77;100554.91;5077179;28;20054;-54
2022/08/20 08:05:45;;;;;;;13.75;7.13;;;;;;;25.64;33.93;100555.34;5071569;28;20052;-54
2022/08/20 08:08:16;;;;;;;10.38;4.07;;;;;;;25.49;33.59;100551.28;5070479;28;20044;-55
2022/08/20 08:10:42;;;;;;;14.60;7.85;;;;;;;25.64;33.25;100553.53;5084030;28;20113;-50
2022/08/20 08:13:11;;;;;;;18.52;8.65;;;;;;;26.01;32.91;100553.13;5079207;28;20039;-53
2022/08/20 08:15:39;;;;;;;23.05;10.73;;;;;;;26.33;32.44;100548.56;5090774;28;20040;-53
2022/08/20 08:18:07;;;;;;;;;;;;;;;26.56;32.42;100543.91;5084087;28;20074;-52
2022/08/20 08:20:39;;;;;;;12.35;5.88;;;;;;;26.34;32.37;100525.41;5088537;28;19920;-52
2022/08/20 08:23:06;;;;;;;9.95;5.32;;;;;;;26.30;32.64;100542.66;5084314;28;20036;-52
2022/08/20 08:25:32;;;;;;;15.40;6.25;;;;;;;26.15;32.65;100526.13;5088218;28;20046;-53
2022/08/20 08:27:59;;;;;;;14.90;5.43;;;;;;;26.21;32.87;100543.41;5090008;28;20043;-53
2022/08/20 08:30:27;;;;;;;15.70;7.63;;;;;;;26.15;32.77;100545.63;5079623;28;20040;-55
2022/08/20 08:35:39;;;;;;;12.98;6.50;;;;;;;25.95;33.39;100550.97;5089279;28;20040;-51
2022/08/20 08:38:05;;;;;;;17.23;5.88;;;;;;;25.83;33.20;100557.31;5089692;28;20090;-50
2022/08/20 08:40:31;;;;;;;17.45;7.13;;;;;;;25.72;33.35;100566.22;5089586;28;20051;-49
2022/08/20 08:43:00;;;;;;;14.43;5.30;;;;;;;25.53;33.23;100560.69;5088760;28;20043;-55
2022/08/20 08:45:27;;;;;;;;;;;;;;;25.39;33.54;100568.94;5088678;28;20034;-52
2022/08/20 08:47:54;;;;;;;23.75;10.88;;;;;;;24.97;34.03;100551.97;5085919;28;20359;-50
2022/08/20 08:50:26;;;;;;;15.52;7.10;;;;;;;24.87;34.05;100559.81;5087908;28;20108;-50
2022/08/20 08:52:52;;;;;;;10.75;4.10;;;;;;;;;;5071532;28;20036;-51
2022/08/20 08:55:19;;;;;;;10.07;4.88;;;;;;;24.85;34.22;100557.31;5090079;28;20089;-52
2022/08/20 08:57:48;;;;;;;8.02;3.30;;;;;;;24.63;33.00;100565.28;5087981;28;20047;-52
2022/08/20 09:00:17;;;;;;;5.70;3.50;;;;;;;24.39;33.13;100562.72;5088586;28;20040;-48
2022/08/20 09:03:02;;;;;;;6.45;2.80;;;;;;;24.26;32.77;100566.47;5088776;28;20040;-49
2022/08/20 09:05:57;;;;;;;7.15;3.20;;;;;;;23.91;33.22;100569.13;5089602;28;20094;-49
2022/08/20 09:08:26;;;;;;;9.18;3.30;;;;;;;23.38;33.51;100520.84;5092124;28;20085;-51
2022/08/20 09:10:51;;;;;;;;;;;;;;;23.50;33.56;100567.72;5092891;28;20391;-51
2022/08/20 09:13:18;;;;;;;5.93;3.13;;;;;;;23.32;33.79;100571.72;5093190;28;19916;-53
2022/08/20 09:15:44;;;;;;;7.80;3.20;;;;;;;23.28;33.70;100572.06;5092083;28;20519;-48
2022/08/20 09:18:09;;;;;;;10.77;3.78;;;;;;;23.31;33.81;100566.53;5093238;28;20077;-48
2022/08/20 09:20:35;;;;;;;8.88;3.67;;;;;;;23.28;33.87;100557.00;5092980;28;20139;-52
2022/08/20 09:23:04;;;;;;;7.50;4.05;;;;;;;23.32;33.93;100568.22;5093333;28;20118;-48
2022/08/20 09:25:30;;;;;;;6.18;3.65;;;;;;;23.30;33.93;100567.47;5093232;28;20036;-47
2022/08/20 09:27:56;;;;;;;7.80;3.92;;;;;;;23.29;34.14;100566.63;5093555;28;20181;-47
2022/08/20 09:30:22;;;;;;;9.18;3.85;;;;;;;23.22;34.25;100573.34;5092944;28;20554;-49
2022/08/20 09:32:47;;;;;;;8.05;3.67;;;;;;;23.13;34.25;100582.81;5091391;28;20044;-51
2022/08/20 09:35:14;;;;;;;10.65;4.00;;;;;;;22.84;34.57;100580.56;5091500;28;20048;-48
2022/08/20 09:37:40;;;;;;;12.90;4.25;;;;;;;22.73;35.35;100579.50;5084788;28;20086;-50
2022/08/20 09:40:07;;;;;;;7.85;4.60;;;;;;;22.70;36.04;100594.75;5072865;28;20044;-50
2022/08/20 09:42:35;;;;;;;13.17;5.73;;;;;;;22.56;36.25;100586.94;5072873;28;20052;-48
2022/08/20 09:45:01;;;;;;;11.65;5.60;;;;;;;22.38;35.88;100568.69;5078608;28;20508;-52
2022/08/20 09:47:31;;;;;;;13.82;6.00;;;;;;;22.28;35.89;100567.63;5092848;28;20575;-52
2022/08/20 09:49:57;;;;;;;14.90;6.40;;;;;;;22.29;36.02;100600.28;5092125;28;20051;-51
2022/08/20 09:52:27;;;;;;;10.00;5.78;;;;;;;21.99;36.56;100576.69;5092803;28;20051;-49
2022/08/20 09:55:03;;;;;;;16.05;5.90;;;;;;;22.15;37.25;100592.41;5091337;28;20051;-50
2022/08/20 09:57:30;;;;;;;9.15;5.85;;;;;;;22.06;37.47;100593.03;5091690;28;20043;-47
2022/08/20 10:00:02;;;;;;;18.98;7.82;;;;;;;21.98;38.78;100594.38;5091247;28;20050;-52
2022/08/20 10:02:39;;;;;;;16.05;8.80;;;;;;;22.00;39.54;100583.69;5091609;28;20044;-52
2022/08/20 10:05:06;;;;;;;11.10;6.32;;;;;;;21.72;39.83;100563.47;5092377;28;20043;-50
2022/08/20 10:07:33;;;;;;;14.00;7.30;;;;;;;21.88;40.36;100595.06;5092490;28;20050;-57
2022/08/20 10:09:59;;;;;;;10.95;6.82;;;;;;;21.93;40.49;100575.28;5092435;28;20109;-51
2022/08/20 10:12:26;;;;;;;17.23;9.07;;;;;;;22.02;41.02;100579.16;5091174;28;20520;-50
2022/08/20 10:14:54;;;;;;;14.35;8.23;;;;;;;21.98;40.67;100559.94;5092000;28;20063;-50
2022/08/20 10:17:20;;;;;;;14.10;8.48;;;;;;;22.18;40.64;100582.47;5092276;28;20082;-48
2022/08/20 10:19:46;;;;;;;18.30;10.75;;;;;;;22.07;40.98;100573.53;5090520;28;20047;-52
2022/08/20 10:22:12;;;;;;;15.07;7.80;;;;;;;21.87;40.92;100554.53;5090355;28;20161;-51
2022/08/20 10:24:38;;;;;;;14.98;8.00;;;;;;;21.70;41.30;100527.47;5090380;28;20127;-53
2022/08/20 10:27:04;;;;;;;14.52;9.75;;;;;;;21.89;41.86;100559.69;5092246;28;20126;-51
2022/08/20 10:29:31;;;;;;;16.98;9.88;;;;;;;21.83;42.36;100574.19;5092033;28;20028;-49
2022/08/20 10:32:11;;;;;;;14.75;8.50;;;;;;;21.83;42.68;100568.91;5089966;28;20062;-49
2022/08/20 10:34:41;;;;;;;15.95;9.07;;;;;;;21.80;43.22;100563.81;5091919;28;20092;-49
2022/08/20 10:37:08;;;;;;;17.27;8.00;;;;;;;21.79;44.01;100574.50;5090452;28;20431;-50
2022/08/20 10:39:33;;;;;;;18.30;9.95;;;;;;;21.76;44.54;100572.06;5091838;28;20032;-51
2022/08/20 10:41:59;;;;;;;13.57;8.07;;;;;;;21.71;45.00;100566.22;5090123;28;20476;-50
2022/08/20 10:44:25;;;;;;;19.15;12.90;;;;;;;21.67;44.86;100575.34;5084748;28;20419;-51
2022/08/20 10:46:51;;;;;;;12.60;8.05;;;;;;;21.68;45.32;100567.28;5073756;28;20032;-48
2022/08/20 10:49:18;;;;;;;18.45;8.68;;;;;;;21.65;45.77;100579.88;5090027;28;20058;-52
2022/08/20 10:51:43;;;;;;;16.90;8.07;;;;;;;21.68;46.20;100571.72;5084762;28;20072;-50
2022/08/20 10:54:09;;;;;;;15.93;7.57;;;;;;;21.53;46.44;100547.97;5091347;28;20076;-50
2022/08/20 10:56:35;;;;;;;14.45;7.82;;;;;;;21.67;46.75;100576.16;5091367;28;20047;-50
2022/08/20 10:59:00;;;;;;;14.02;7.65;;;;;;;21.71;46.79;100571.53;5091498;28;20424;-50
2022/08/20 11:01:27;;;;;;;19.73;8.68;;;;;;;21.66;46.95;100578.94;5086329;28;20070;-51
2022/08/20 11:03:53;;;;;;;11.93;6.03;;;;;;;21.60;46.89;100574.03;5091531;28;20071;-52
2022/08/20 11:06:19;;;;;;;13.18;7.72;;;;;;;21.60;47.22;100571.38;5091261;28;20043;-55
2022/08/20 11:08:44;;;;;;;10.75;6.10;;;;;;;21.54;47.70;100564.69;5091452;28;20071;-48
2022/08/20 11:11:10;;;;;;;13.15;6.88;;;;;;;21.51;48.03;100570.19;5089764;28;20082;-53
2022/08/20 11:13:36;;;;;;;15.00;6.90;;;;;;;21.43;48.51;100562.75;5090443;28;20064;-53
2022/08/20 11:16:02;;;;;;;10.55;7.40;;;;;;;21.41;48.96;100569.06;5091355;28;20131;-50
2022/08/20 11:18:29;;;;;;;8.48;5.80;;;;;;;21.41;49.19;100563.78;5090951;28;20081;-49
2022/08/20 11:20:55;;;;;;;12.30;6.90;;;;;;;21.39;49.78;100566.53;5090362;28;20155;-49
2022/08/20 11:23:22;;;;;;;10.95;6.43;;;;;;;21.35;49.90;100562.41;5090977;28;20047;-52
2022/08/20 11:25:48;;;;;;;13.13;5.18;;;;;;;21.31;50.21;100567.97;5078040;28;20048;-48
2022/08/20 11:28:14;;;;;;;8.00;5.03;;;;;;;21.05;49.71;100522.00;5070855;28;20040;-48
2022/08/20 11:30:40;;;;;;;11.73;5.55;;;;;;;21.39;49.31;100563.06;5072851;28;20547;-52